sensor_id;sensor_type;location;lat;lon;timestamp;P1;durP1;ratioP1;P2;durP2;ratioP2
10491;SDS011;5293;51.464;-2.566;2022-12-29T00:02:14;15.73;;;3.63;;
10491;SDS011;5293;51.464;-2.566;2022-12-29T00:04:40;14.67;;;3.30;;
10491;SDS011;5293;51.464;-2.566;2022-12-29T00:07:05;15.70;;;3.50;;
10491;SDS011;5293;51.464;-2.566;2022-12-29T00:09:32;11.33;;;3.90;;
10491;SDS011;5293;51.464;-2.566;2022-12-29T00:11:58;20.70;;;3.67;;
10491;SDS011;5293;51.464;-2.566;2022-12-29T00:14:24;17.23;;;4.73;;
10491;SDS011;5293;51.464;-2.566;2022-12-29T00:17:10;16.47;;;4.27;;
10491;SDS011;5293;51.464;-2.566;2022-12-29T00:19:35;19.40;;;4.20;;
10491;SDS011;5293;51.464;-2.566;2022-12-29T00:22:19;18.87;;;4.13;;
10491;SDS011;5293;51.464;-2.566;2022-12-29T00:25:04;19.07;;;3.77;;
10491;SDS011;5293;51.464;-2.566;2022-12-29T00:27:30;17.70;;;3.57;;
10491;SDS011;5293;51.464;-2.566;2022-12-29T00:30:20;15.40;;;3.60;;
10491;SDS011;5293;51.464;-2.566;2022-12-29T00:33:12;11.57;;;3.40;;
10491;SDS011;5293;51.464;-2.566;2022-12-29T00:38:50;16.80;;;3.77;;
10491;SDS011;5293;51.464;-2.566;2022-12-29T00:41:42;14.20;;;3.33;;
10491;SDS011;5293;51.464;-2.566;2022-12-29T00:44:27;18.13;;;4.23;;
10491;SDS011;5293;51.464;-2.566;2022-12-29T00:46:52;21.43;;;3.40;;
10491;SDS011;5293;51.464;-2.566;2022-12-29T00:49:18;16.40;;;2.90;;
10491;SDS011;5293;51.464;-2.566;2022-12-29T00:52:06;10.03;;;3.27;;
10491;SDS011;5293;51.464;-2.566;2022-12-29T00:54:34;18.37;;;3.77;;
10491;SDS011;5293;51.464;-2.566;2022-12-29T00:57:02;16.93;;;3.70;;
10491;SDS011;5293;51.464;-2.566;2022-12-29T00:59:28;18.43;;;3.17;;
10491;SDS011;5293;51.464;-2.566;2022-12-29T01:01:54;15.50;;;3.73;;
10491;SDS011;5293;51.464;-2.566;2022-12-29T01:04:21;15.00;;;5.00;;
10491;SDS011;5293;51.464;-2.566;2022-12-29T01:06:48;25.20;;;4.33;;
10491;SDS011;5293;51.464;-2.566;2022-12-29T01:09:15;22.50;;;4.43;;
10491;SDS011;5293;51.464;-2.566;2022-12-29T01:12:00;15.97;;;3.43;;
10491;SDS011;5293;51.464;-2.566;2022-12-29T01:14:25;17.53;;;4.13;;
10491;SDS011;5293;51.464;-2.566;2022-12-29T01:16:51;19.37;;;3.60;;
10491;SDS011;5293;51.464;-2.566;2022-12-29T01:19:17;23.87;;;4.03;;
10491;SDS011;5293;51.464;-2.566;2022-12-29T01:21:44;20.23;;;4.07;;
10491;SDS011;5293;51.464;-2.566;2022-12-29T01:24:10;14.00;;;3.50;;
10491;SDS011;5293;51.464;-2.566;2022-12-29T01:26:36;13.57;;;3.27;;
10491;SDS011;5293;51.464;-2.566;2022-12-29T01:29:02;15.87;;;3.47;;
10491;SDS011;5293;51.464;-2.566;2022-12-29T01:31:27;15.60;;;3.73;;
10491;SDS011;5293;51.464;-2.566;2022-12-29T01:33:53;21.10;;;4.60;;
10491;SDS011;5293;51.464;-2.566;2022-12-29T01:36:19;17.63;;;4.57;;
10491;SDS011;5293;51.464;-2.566;2022-12-29T01:38:45;15.53;;;3.13;;
10491;SDS011;5293;51.464;-2.566;2022-12-29T01:41:12;13.80;;;2.93;;
10491;SDS011;5293;51.464;-2.566;2022-12-29T01:43:48;8.23;;;3.00;;
10491;SDS011;5293;51.464;-2.566;2022-12-29T01:46:33;11.60;;;3.30;;
10491;SDS011;5293;51.464;-2.566;2022-12-29T01:49:12;23.17;;;2.87;;
10491;SDS011;5293;51.464;-2.566;2022-12-29T01:51:52;11.97;;;2.70;;
10491;SDS011;5293;51.464;-2.566;2022-12-29T01:56:57;15.10;;;3.40;;
10491;SDS011;5293;51.464;-2.566;2022-12-29T01:59:30;19.17;;;3.53;;
10491;SDS011;5293;51.464;-2.566;2022-12-29T02:01:59;15.57;;;3.10;;
10491;SDS011;5293;51.464;-2.566;2022-12-29T02:04:26;11.63;;;2.57;;
10491;SDS011;5293;51.464;-2.566;2022-12-29T02:07:02;9.87;;;2.77;;
10491;SDS011;5293;51.464;-2.566;2022-12-29T02:09:31;16.67;;;2.70;;
10491;SDS011;5293;51.464;-2.566;2022-12-29T02:11:57;15.67;;;2.80;;
10491;SDS011;5293;51.464;-2.566;2022-12-29T02:14:24;11.47;;;2.67;;
10491;SDS011;5293;51.464;-2.566;2022-12-29T02:17:00;13.10;;;3.00;;
10491;SDS011;5293;51.464;-2.566;2022-12-29T02:19:53;13.37;;;3.53;;
10491;SDS011;5293;51.464;-2.566;2022-12-29T02:31:13;10.00;;;2.70;;
10491;SDS011;5293;51.464;-2.566;2022-12-29T02:33:53;12.57;;;2.50;;
10491;SDS011;5293;51.464;-2.566;2022-12-29T02:36:38;11.20;;;2.73;;
10491;SDS011;5293;51.464;-2.566;2022-12-29T02:39:15;9.50;;;2.90;;
10491;SDS011;5293;51.464;-2.566;2022-12-29T02:41:45;17.00;;;3.73;;
10491;SDS011;5293;51.464;-2.566;2022-12-29T02:47:36;10.83;;;2.73;;
10491;SDS011;5293;51.464;-2.566;2022-12-29T02:53:13;11.80;;;2.80;;
10491;SDS011;5293;51.464;-2.566;2022-12-29T02:55:49;6.03;;;1.83;;
10491;SDS011;5293;51.464;-2.566;2022-12-29T02:58:18;4.73;;;1.50;;
10491;SDS011;5293;51.464;-2.566;2022-12-29T03:03:38;10.63;;;2.50;;
10491;SDS011;5293;51.464;-2.566;2022-12-29T03:09:36;6.93;;;2.03;;
10491;SDS011;5293;51.464;-2.566;2022-12-29T03:12:24;19.03;;;2.50;;
10491;SDS011;5293;51.464;-2.566;2022-12-29T03:15:18;13.57;;;2.60;;
10491;SDS011;5293;51.464;-2.566;2022-12-29T03:18:12;15.93;;;3.17;;
10491;SDS011;5293;51.464;-2.566;2022-12-29T03:21:03;20.30;;;3.27;;
10491;SDS011;5293;51.464;-2.566;2022-12-29T03:23:43;12.97;;;2.97;;
10491;SDS011;5293;51.464;-2.566;2022-12-29T03:26:15;12.77;;;3.00;;
10491;SDS011;5293;51.464;-2.566;2022-12-29T03:28:52;11.80;;;2.87;;
10491;SDS011;5293;51.464;-2.566;2022-12-29T03:31:19;17.00;;;2.87;;
10491;SDS011;5293;51.464;-2.566;2022-12-29T03:33:46;19.80;;;4.03;;
10491;SDS011;5293;51.464;-2.566;2022-12-29T03:36:16;14.17;;;3.30;;
10491;SDS011;5293;51.464;-2.566;2022-12-29T03:38:53;18.93;;;3.30;;
10491;SDS011;5293;51.464;-2.566;2022-12-29T03:41:34;18.03;;;3.70;;
10491;SDS011;5293;51.464;-2.566;2022-12-29T03:44:01;14.10;;;3.57;;
10491;SDS011;5293;51.464;-2.566;2022-12-29T03:46:27;19.37;;;4.57;;
10491;SDS011;5293;51.464;-2.566;2022-12-29T03:48:52;10.70;;;2.70;;
10491;SDS011;5293;51.464;-2.566;2022-12-29T03:51:18;11.87;;;3.20;;
10491;SDS011;5293;51.464;-2.566;2022-12-29T03:53:43;13.07;;;3.63;;
10491;SDS011;5293;51.464;-2.566;2022-12-29T03:56:09;12.87;;;2.87;;
10491;SDS011;5293;51.464;-2.566;2022-12-29T03:58:35;8.63;;;2.80;;
10491;SDS011;5293;51.464;-2.566;2022-12-29T04:01:00;7.13;;;2.40;;
10491;SDS011;5293;51.464;-2.566;2022-12-29T04:03:26;8.27;;;2.30;;
10491;SDS011;5293;51.464;-2.566;2022-12-29T04:05:52;8.10;;;2.87;;
10491;SDS011;5293;51.464;-2.566;2022-12-29T04:08:17;11.13;;;2.53;;
10491;SDS011;5293;51.464;-2.566;2022-12-29T04:10:43;9.77;;;2.37;;
10491;SDS011;5293;51.464;-2.566;2022-12-29T04:13:09;11.23;;;2.87;;
10491;SDS011;5293;51.464;-2.566;2022-12-29T04:15:34;10.60;;;2.87;;
10491;SDS011;5293;51.464;-2.566;2022-12-29T04:18:01;9.40;;;2.47;;
10491;SDS011;5293;51.464;-2.566;2022-12-29T04:20:27;6.57;;;2.10;;
10491;SDS011;5293;51.464;-2.566;2022-12-29T04:23:11;8.23;;;2.40;;
10491;SDS011;5293;51.464;-2.566;2022-12-29T04:25:36;9.23;;;2.37;;
10491;SDS011;5293;51.464;-2.566;2022-12-29T04:28:02;9.50;;;2.43;;
10491;SDS011;5293;51.464;-2.566;2022-12-29T04:30:28;9.00;;;2.13;;
10491;SDS011;5293;51.464;-2.566;2022-12-29T04:32:54;10.17;;;1.90;;
10491;SDS011;5293;51.464;-2.566;2022-12-29T04:35:19;11.47;;;2.87;;
10491;SDS011;5293;51.464;-2.566;2022-12-29T04:37:45;7.67;;;2.03;;
10491;SDS011;5293;51.464;-2.566;2022-12-29T04:40:11;9.00;;;1.87;;
10491;SDS011;5293;51.464;-2.566;2022-12-29T04:42:36;9.30;;;2.00;;
10491;SDS011;5293;51.464;-2.566;2022-12-29T04:45:02;4.93;;;1.90;;
10491;SDS011;5293;51.464;-2.566;2022-12-29T04:47:28;11.80;;;3.03;;
10491;SDS011;5293;51.464;-2.566;2022-12-29T04:49:54;5.57;;;1.57;;
10491;SDS011;5293;51.464;-2.566;2022-12-29T04:52:19;7.93;;;1.60;;
10491;SDS011;5293;51.464;-2.566;2022-12-29T04:54:45;6.77;;;2.27;;
10491;SDS011;5293;51.464;-2.566;2022-12-29T04:57:11;9.57;;;2.50;;
10491;SDS011;5293;51.464;-2.566;2022-12-29T04:59:36;6.63;;;1.90;;
10491;SDS011;5293;51.464;-2.566;2022-12-29T05:02:02;9.27;;;1.43;;
10491;SDS011;5293;51.464;-2.566;2022-12-29T05:04:27;5.40;;;1.63;;
10491;SDS011;5293;51.464;-2.566;2022-12-29T05:06:53;6.33;;;1.40;;
10491;SDS011;5293;51.464;-2.566;2022-12-29T05:09:19;10.40;;;2.20;;
10491;SDS011;5293;51.464;-2.566;2022-12-29T05:11:44;8.97;;;1.97;;
10491;SDS011;5293;51.464;-2.566;2022-12-29T05:14:10;8.87;;;1.93;;
10491;SDS011;5293;51.464;-2.566;2022-12-29T05:16:36;10.83;;;2.07;;
10491;SDS011;5293;51.464;-2.566;2022-12-29T05:19:01;9.13;;;2.37;;
10491;SDS011;5293;51.464;-2.566;2022-12-29T05:21:27;8.37;;;2.17;;
10491;SDS011;5293;51.464;-2.566;2022-12-29T05:23:53;7.80;;;2.50;;
10491;SDS011;5293;51.464;-2.566;2022-12-29T05:26:18;9.37;;;2.43;;
10491;SDS011;5293;51.464;-2.566;2022-12-29T05:28:44;10.40;;;2.67;;
10491;SDS011;5293;51.464;-2.566;2022-12-29T05:31:10;12.80;;;2.10;;
10491;SDS011;5293;51.464;-2.566;2022-12-29T05:33:35;5.33;;;1.63;;
10491;SDS011;5293;51.464;-2.566;2022-12-29T05:36:05;9.87;;;3.17;;
10491;SDS011;5293;51.464;-2.566;2022-12-29T05:38:32;13.40;;;2.17;;
10491;SDS011;5293;51.464;-2.566;2022-12-29T05:40:57;15.13;;;2.07;;
10491;SDS011;5293;51.464;-2.566;2022-12-29T05:43:23;7.63;;;2.37;;
10491;SDS011;5293;51.464;-2.566;2022-12-29T05:45:49;9.70;;;2.10;;
10491;SDS011;5293;51.464;-2.566;2022-12-29T05:48:15;14.07;;;2.43;;
10491;SDS011;5293;51.464;-2.566;2022-12-29T05:50:40;14.07;;;2.30;;
10491;SDS011;5293;51.464;-2.566;2022-12-29T05:53:06;6.17;;;2.00;;
10491;SDS011;5293;51.464;-2.566;2022-12-29T05:55:32;9.33;;;2.07;;
10491;SDS011;5293;51.464;-2.566;2022-12-29T05:57:57;8.60;;;1.93;;
10491;SDS011;5293;51.464;-2.566;2022-12-29T06:00:23;11.27;;;2.20;;
10491;SDS011;5293;51.464;-2.566;2022-12-29T06:02:51;8.20;;;1.90;;
10491;SDS011;5293;51.464;-2.566;2022-12-29T06:05:16;12.17;;;2.43;;
10491;SDS011;5293;51.464;-2.566;2022-12-29T06:07:42;11.47;;;2.13;;
10491;SDS011;5293;51.464;-2.566;2022-12-29T06:10:09;14.27;;;2.77;;
10491;SDS011;5293;51.464;-2.566;2022-12-29T06:12:35;9.10;;;2.40;;
10491;SDS011;5293;51.464;-2.566;2022-12-29T06:15:00;16.20;;;2.27;;
10491;SDS011;5293;51.464;-2.566;2022-12-29T06:17:26;13.10;;;2.93;;
10491;SDS011;5293;51.464;-2.566;2022-12-29T06:19:52;12.13;;;2.40;;
10491;SDS011;5293;51.464;-2.566;2022-12-29T06:22:17;12.63;;;3.07;;
10491;SDS011;5293;51.464;-2.566;2022-12-29T06:24:43;13.90;;;3.37;;
10491;SDS011;5293;51.464;-2.566;2022-12-29T06:27:09;9.10;;;2.50;;
10491;SDS011;5293;51.464;-2.566;2022-12-29T06:29:34;11.57;;;2.33;;
10491;SDS011;5293;51.464;-2.566;2022-12-29T06:32:02;12.97;;;2.73;;
10491;SDS011;5293;51.464;-2.566;2022-12-29T06:34:28;13.00;;;2.57;;
10491;SDS011;5293;51.464;-2.566;2022-12-29T06:36:54;9.63;;;2.00;;
10491;SDS011;5293;51.464;-2.566;2022-12-29T06:39:20;13.23;;;2.10;;
10491;SDS011;5293;51.464;-2.566;2022-12-29T06:41:45;11.03;;;2.77;;
10491;SDS011;5293;51.464;-2.566;2022-12-29T06:44:11;10.07;;;1.90;;
10491;SDS011;5293;51.464;-2.566;2022-12-29T06:46:36;9.63;;;2.53;;
10491;SDS011;5293;51.464;-2.566;2022-12-29T06:49:02;14.63;;;2.13;;
10491;SDS011;5293;51.464;-2.566;2022-12-29T06:51:28;11.67;;;3.07;;
10491;SDS011;5293;51.464;-2.566;2022-12-29T06:53:53;7.80;;;2.10;;
10491;SDS011;5293;51.464;-2.566;2022-12-29T06:56:19;9.27;;;2.33;;
10491;SDS011;5293;51.464;-2.566;2022-12-29T06:58:45;9.77;;;2.17;;
10491;SDS011;5293;51.464;-2.566;2022-12-29T07:01:10;7.80;;;1.87;;
10491;SDS011;5293;51.464;-2.566;2022-12-29T07:03:36;10.30;;;2.07;;
10491;SDS011;5293;51.464;-2.566;2022-12-29T07:06:02;9.27;;;1.77;;
10491;SDS011;5293;51.464;-2.566;2022-12-29T07:08:27;15.90;;;2.70;;
10491;SDS011;5293;51.464;-2.566;2022-12-29T07:10:53;10.13;;;1.97;;
10491;SDS011;5293;51.464;-2.566;2022-12-29T07:13:19;8.47;;;1.70;;
10491;SDS011;5293;51.464;-2.566;2022-12-29T07:15:44;7.50;;;1.73;;
10491;SDS011;5293;51.464;-2.566;2022-12-29T07:18:10;9.33;;;1.23;;
10491;SDS011;5293;51.464;-2.566;2022-12-29T07:20:36;7.63;;;2.03;;
10491;SDS011;5293;51.464;-2.566;2022-12-29T07:23:02;7.10;;;1.40;;
10491;SDS011;5293;51.464;-2.566;2022-12-29T07:25:28;10.27;;;2.00;;
10491;SDS011;5293;51.464;-2.566;2022-12-29T07:27:54;7.73;;;1.90;;
10491;SDS011;5293;51.464;-2.566;2022-12-29T07:30:20;8.40;;;1.90;;
10491;SDS011;5293;51.464;-2.566;2022-12-29T07:32:45;6.77;;;1.83;;
10491;SDS011;5293;51.464;-2.566;2022-12-29T07:35:11;9.70;;;1.53;;
10491;SDS011;5293;51.464;-2.566;2022-12-29T07:37:37;4.93;;;1.70;;
10491;SDS011;5293;51.464;-2.566;2022-12-29T07:40:02;7.00;;;1.40;;
10491;SDS011;5293;51.464;-2.566;2022-12-29T07:42:29;8.70;;;2.40;;
10491;SDS011;5293;51.464;-2.566;2022-12-29T07:44:55;7.77;;;1.77;;
10491;SDS011;5293;51.464;-2.566;2022-12-29T07:47:21;9.43;;;2.03;;
10491;SDS011;5293;51.464;-2.566;2022-12-29T07:49:46;8.93;;;2.10;;
10491;SDS011;5293;51.464;-2.566;2022-12-29T07:52:12;12.53;;;2.53;;
10491;SDS011;5293;51.464;-2.566;2022-12-29T07:54:38;9.73;;;2.03;;
10491;SDS011;5293;51.464;-2.566;2022-12-29T07:57:03;9.33;;;2.37;;
10491;SDS011;5293;51.464;-2.566;2022-12-29T07:59:30;7.73;;;1.90;;
10491;SDS011;5293;51.464;-2.566;2022-12-29T08:01:56;13.30;;;2.43;;
10491;SDS011;5293;51.464;-2.566;2022-12-29T08:04:22;6.77;;;1.43;;
10491;SDS011;5293;51.464;-2.566;2022-12-29T08:06:47;5.97;;;1.60;;
10491;SDS011;5293;51.464;-2.566;2022-12-29T08:09:13;9.23;;;1.80;;
10491;SDS011;5293;51.464;-2.566;2022-12-29T08:11:39;7.93;;;1.50;;
10491;SDS011;5293;51.464;-2.566;2022-12-29T08:14:05;8.07;;;1.63;;
10491;SDS011;5293;51.464;-2.566;2022-12-29T08:16:31;8.83;;;1.77;;
10491;SDS011;5293;51.464;-2.566;2022-12-29T08:18:57;4.37;;;1.40;;
10491;SDS011;5293;51.464;-2.566;2022-12-29T08:21:24;11.00;;;2.00;;
10491;SDS011;5293;51.464;-2.566;2022-12-29T08:23:50;6.60;;;1.80;;
10491;SDS011;5293;51.464;-2.566;2022-12-29T08:26:15;7.30;;;1.73;;
10491;SDS011;5293;51.464;-2.566;2022-12-29T08:28:41;7.53;;;1.60;;
10491;SDS011;5293;51.464;-2.566;2022-12-29T08:31:07;9.40;;;1.80;;
10491;SDS011;5293;51.464;-2.566;2022-12-29T08:33:32;13.03;;;1.83;;
10491;SDS011;5293;51.464;-2.566;2022-12-29T08:36:02;9.33;;;1.97;;
10491;SDS011;5293;51.464;-2.566;2022-12-29T08:38:29;11.20;;;1.93;;
10491;SDS011;5293;51.464;-2.566;2022-12-29T08:40:55;6.43;;;1.80;;
10491;SDS011;5293;51.464;-2.566;2022-12-29T08:43:21;15.80;;;2.20;;
10491;SDS011;5293;51.464;-2.566;2022-12-29T08:45:47;13.10;;;2.37;;
10491;SDS011;5293;51.464;-2.566;2022-12-29T08:48:13;6.03;;;2.20;;
10491;SDS011;5293;51.464;-2.566;2022-12-29T08:50:42;13.93;;;2.30;;
10491;SDS011;5293;51.464;-2.566;2022-12-29T08:53:08;8.83;;;2.57;;
10491;SDS011;5293;51.464;-2.566;2022-12-29T08:55:34;15.10;;;3.50;;
10491;SDS011;5293;51.464;-2.566;2022-12-29T08:58:00;10.60;;;2.33;;
10491;SDS011;5293;51.464;-2.566;2022-12-29T09:00:26;13.07;;;3.00;;
10491;SDS011;5293;51.464;-2.566;2022-12-29T09:02:51;7.80;;;2.70;;
10491;SDS011;5293;51.464;-2.566;2022-12-29T09:05:17;7.97;;;1.80;;
10491;SDS011;5293;51.464;-2.566;2022-12-29T09:07:43;13.93;;;2.57;;
10491;SDS011;5293;51.464;-2.566;2022-12-29T09:10:08;13.90;;;2.33;;
10491;SDS011;5293;51.464;-2.566;2022-12-29T09:12:34;11.37;;;2.33;;
10491;SDS011;5293;51.464;-2.566;2022-12-29T09:15:00;12.40;;;1.97;;
10491;SDS011;5293;51.464;-2.566;2022-12-29T09:17:26;12.13;;;2.33;;
10491;SDS011;5293;51.464;-2.566;2022-12-29T09:20:13;5.37;;;2.37;;
10491;SDS011;5293;51.464;-2.566;2022-12-29T09:22:42;7.73;;;2.10;;
10491;SDS011;5293;51.464;-2.566;2022-12-29T09:25:08;11.20;;;2.33;;
10491;SDS011;5293;51.464;-2.566;2022-12-29T09:27:34;15.67;;;2.63;;
10491;SDS011;5293;51.464;-2.566;2022-12-29T09:30:01;14.47;;;2.50;;
10491;SDS011;5293;51.464;-2.566;2022-12-29T09:32:31;12.07;;;2.33;;
10491;SDS011;5293;51.464;-2.566;2022-12-29T09:34:57;10.10;;;1.97;;
10491;SDS011;5293;51.464;-2.566;2022-12-29T09:37:23;10.37;;;1.97;;
10491;SDS011;5293;51.464;-2.566;2022-12-29T09:39:49;8.93;;;2.00;;
10491;SDS011;5293;51.464;-2.566;2022-12-29T09:42:19;10.03;;;2.03;;
10491;SDS011;5293;51.464;-2.566;2022-12-29T09:47:35;16.40;;;3.00;;
10491;SDS011;5293;51.464;-2.566;2022-12-29T09:50:03;7.30;;;2.00;;
10491;SDS011;5293;51.464;-2.566;2022-12-29T09:55:16;9.50;;;2.90;;
10491;SDS011;5293;51.464;-2.566;2022-12-29T09:57:47;10.47;;;1.70;;
10491;SDS011;5293;51.464;-2.566;2022-12-29T10:00:54;11.03;;;2.83;;
10491;SDS011;5293;51.464;-2.566;2022-12-29T10:03:32;7.93;;;1.90;;
10491;SDS011;5293;51.464;-2.566;2022-12-29T10:12:11;9.57;;;2.80;;
10491;SDS011;5293;51.464;-2.566;2022-12-29T10:17:43;13.93;;;2.20;;
10491;SDS011;5293;51.464;-2.566;2022-12-29T10:20:49;5.73;;;1.93;;
10491;SDS011;5293;51.464;-2.566;2022-12-29T10:23:29;7.53;;;1.80;;
10491;SDS011;5293;51.464;-2.566;2022-12-29T10:26:10;4.97;;;1.97;;
10491;SDS011;5293;51.464;-2.566;2022-12-29T10:32:20;15.93;;;1.93;;
10491;SDS011;5293;51.464;-2.566;2022-12-29T10:34:23;6.27;;;1.77;;
10491;SDS011;5293;51.464;-2.566;2022-12-29T10:37:04;10.82;;;1.98;;
10491;SDS011;5293;51.464;-2.566;2022-12-29T10:39:32;8.67;;;2.13;;
10491;SDS011;5293;51.464;-2.566;2022-12-29T10:42:10;7.60;;;1.90;;
10491;SDS011;5293;51.464;-2.566;2022-12-29T10:44:59;10.67;;;1.93;;
10491;SDS011;5293;51.464;-2.566;2022-12-29T10:47:27;8.83;;;2.13;;
10491;SDS011;5293;51.464;-2.566;2022-12-29T10:49:56;6.27;;;1.97;;
10491;SDS011;5293;51.464;-2.566;2022-12-29T10:52:23;11.93;;;2.50;;
10491;SDS011;5293;51.464;-2.566;2022-12-29T10:55:34;16.02;;;2.83;;
10491;SDS011;5293;51.464;-2.566;2022-12-29T10:57:44;19.87;;;3.57;;
10491;SDS011;5293;51.464;-2.566;2022-12-29T11:08:10;11.43;;;2.63;;
10491;SDS011;5293;51.464;-2.566;2022-12-29T11:10:42;7.50;;;2.07;;
10491;SDS011;5293;51.464;-2.566;2022-12-29T11:13:16;13.53;;;2.90;;
10491;SDS011;5293;51.464;-2.566;2022-12-29T11:15:44;10.47;;;2.13;;
10491;SDS011;5293;51.464;-2.566;2022-12-29T11:18:22;6.37;;;2.10;;
10491;SDS011;5293;51.464;-2.566;2022-12-29T11:20:54;14.07;;;2.88;;
10491;SDS011;5293;51.464;-2.566;2022-12-29T11:23:34;12.57;;;2.37;;
10491;SDS011;5293;51.464;-2.566;2022-12-29T11:28:36;9.47;;;2.47;;
10491;SDS011;5293;51.464;-2.566;2022-12-29T11:31:06;13.17;;;2.70;;
10491;SDS011;5293;51.464;-2.566;2022-12-29T11:33:34;8.53;;;3.20;;
10491;SDS011;5293;51.464;-2.566;2022-12-29T11:36:02;10.03;;;2.47;;
10491;SDS011;5293;51.464;-2.566;2022-12-29T11:38:41;16.27;;;2.37;;
10491;SDS011;5293;51.464;-2.566;2022-12-29T11:41:12;10.83;;;2.43;;
10491;SDS011;5293;51.464;-2.566;2022-12-29T11:43:43;12.30;;;1.90;;
10491;SDS011;5293;51.464;-2.566;2022-12-29T11:46:24;9.27;;;1.97;;
10491;SDS011;5293;51.464;-2.566;2022-12-29T11:48:52;15.00;;;2.58;;
10491;SDS011;5293;51.464;-2.566;2022-12-29T11:51:23;9.80;;;2.30;;
10491;SDS011;5293;51.464;-2.566;2022-12-29T11:54:04;11.23;;;2.47;;
10491;SDS011;5293;51.464;-2.566;2022-12-29T11:56:37;13.68;;;2.67;;
10491;SDS011;5293;51.464;-2.566;2022-12-29T12:01:57;12.97;;;2.70;;
10491;SDS011;5293;51.464;-2.566;2022-12-29T12:04:24;13.67;;;2.50;;
10491;SDS011;5293;51.464;-2.566;2022-12-29T12:09:37;11.50;;;1.87;;
10491;SDS011;5293;51.464;-2.566;2022-12-29T12:15:25;9.37;;;2.83;;
10491;SDS011;5293;51.464;-2.566;2022-12-29T12:18:17;11.00;;;2.70;;
10491;SDS011;5293;51.464;-2.566;2022-12-29T12:20:50;8.20;;;2.50;;
10491;SDS011;5293;51.464;-2.566;2022-12-29T12:26:30;10.73;;;2.30;;
10491;SDS011;5293;51.464;-2.566;2022-12-29T12:28:59;11.30;;;2.10;;
10491;SDS011;5293;51.464;-2.566;2022-12-29T12:34:28;5.27;;;1.40;;
10491;SDS011;5293;51.464;-2.566;2022-12-29T12:45:45;5.07;;;1.60;;
10491;SDS011;5293;51.464;-2.566;2022-12-29T12:51:51;8.32;;;1.88;;
10491;SDS011;5293;51.464;-2.566;2022-12-29T13:00:14;8.27;;;1.90;;
10491;SDS011;5293;51.464;-2.566;2022-12-29T13:10:57;9.50;;;2.50;;
10491;SDS011;5293;51.464;-2.566;2022-12-29T13:19:17;5.37;;;1.20;;
10491;SDS011;5293;51.464;-2.566;2022-12-29T13:21:58;6.30;;;1.40;;
10491;SDS011;5293;51.464;-2.566;2022-12-29T13:27:20;4.73;;;1.43;;
10491;SDS011;5293;51.464;-2.566;2022-12-29T13:29:57;7.20;;;1.80;;
10491;SDS011;5293;51.464;-2.566;2022-12-29T13:35:42;6.07;;;2.10;;
10491;SDS011;5293;51.464;-2.566;2022-12-29T13:40:56;8.20;;;1.60;;
10491;SDS011;5293;51.464;-2.566;2022-12-29T13:43:27;5.67;;;1.50;;
10491;SDS011;5293;51.464;-2.566;2022-12-29T13:45:58;4.97;;;1.60;;
10491;SDS011;5293;51.464;-2.566;2022-12-29T13:49:11;7.40;;;1.57;;
10491;SDS011;5293;51.464;-2.566;2022-12-29T13:51:17;6.40;;;1.80;;
10491;SDS011;5293;51.464;-2.566;2022-12-29T13:59:42;7.00;;;1.83;;
10491;SDS011;5293;51.464;-2.566;2022-12-29T14:07:48;8.73;;;2.30;;
10491;SDS011;5293;51.464;-2.566;2022-12-29T14:10:37;12.43;;;2.60;;
10491;SDS011;5293;51.464;-2.566;2022-12-29T14:13:13;4.80;;;1.40;;
10491;SDS011;5293;51.464;-2.566;2022-12-29T14:15:41;5.23;;;1.20;;
10491;SDS011;5293;51.464;-2.566;2022-12-29T14:18:21;7.27;;;1.43;;
10491;SDS011;5293;51.464;-2.566;2022-12-29T14:20:56;6.53;;;2.40;;
10491;SDS011;5293;51.464;-2.566;2022-12-29T14:23:26;9.90;;;2.13;;
10491;SDS011;5293;51.464;-2.566;2022-12-29T14:28:34;10.87;;;2.00;;
10491;SDS011;5293;51.464;-2.566;2022-12-29T14:33:40;9.37;;;2.20;;
10491;SDS011;5293;51.464;-2.566;2022-12-29T14:36:33;6.90;;;2.20;;
10491;SDS011;5293;51.464;-2.566;2022-12-29T14:39:03;12.77;;;2.73;;
10491;SDS011;5293;51.464;-2.566;2022-12-29T14:42:13;12.43;;;2.87;;
10491;SDS011;5293;51.464;-2.566;2022-12-29T14:44:48;11.13;;;2.43;;
10491;SDS011;5293;51.464;-2.566;2022-12-29T14:47:20;6.90;;;2.17;;
10491;SDS011;5293;51.464;-2.566;2022-12-29T14:49:51;15.03;;;2.77;;
10491;SDS011;5293;51.464;-2.566;2022-12-29T14:52:22;10.57;;;2.83;;
10491;SDS011;5293;51.464;-2.566;2022-12-29T14:57:39;13.67;;;2.87;;
10491;SDS011;5293;51.464;-2.566;2022-12-29T15:00:21;9.87;;;2.87;;
10491;SDS011;5293;51.464;-2.566;2022-12-29T15:02:53;11.20;;;2.90;;
10491;SDS011;5293;51.464;-2.566;2022-12-29T15:05:28;15.07;;;2.97;;
10491;SDS011;5293;51.464;-2.566;2022-12-29T15:08:10;9.67;;;2.33;;
10491;SDS011;5293;51.464;-2.566;2022-12-29T15:10:42;8.27;;;2.17;;
10491;SDS011;5293;51.464;-2.566;2022-12-29T15:13:17;13.10;;;2.63;;
10491;SDS011;5293;51.464;-2.566;2022-12-29T15:15:47;16.63;;;2.53;;
10491;SDS011;5293;51.464;-2.566;2022-12-29T15:18:14;13.80;;;3.53;;
10491;SDS011;5293;51.464;-2.566;2022-12-29T15:20:55;11.63;;;2.23;;
10491;SDS011;5293;51.464;-2.566;2022-12-29T15:23:30;15.50;;;3.37;;
10491;SDS011;5293;51.464;-2.566;2022-12-29T15:28:25;13.23;;;3.90;;
10491;SDS011;5293;51.464;-2.566;2022-12-29T15:30:53;14.43;;;3.57;;
10491;SDS011;5293;51.464;-2.566;2022-12-29T15:33:21;14.67;;;5.17;;
10491;SDS011;5293;51.464;-2.566;2022-12-29T15:35:49;15.47;;;3.07;;
10491;SDS011;5293;51.464;-2.566;2022-12-29T15:38:21;8.07;;;2.80;;
10491;SDS011;5293;51.464;-2.566;2022-12-29T15:40:55;11.13;;;2.23;;
10491;SDS011;5293;51.464;-2.566;2022-12-29T15:43:30;9.60;;;2.73;;
10491;SDS011;5293;51.464;-2.566;2022-12-29T15:46:01;11.33;;;2.53;;
10491;SDS011;5293;51.464;-2.566;2022-12-29T15:48:27;17.87;;;2.63;;
10491;SDS011;5293;51.464;-2.566;2022-12-29T15:50:54;14.90;;;2.67;;
10491;SDS011;5293;51.464;-2.566;2022-12-29T15:53:23;13.60;;;3.53;;
10491;SDS011;5293;51.464;-2.566;2022-12-29T15:55:54;8.80;;;2.83;;
10491;SDS011;5293;51.464;-2.566;2022-12-29T15:58:44;11.50;;;3.40;;
10491;SDS011;5293;51.464;-2.566;2022-12-29T16:03:55;11.33;;;4.20;;
10491;SDS011;5293;51.464;-2.566;2022-12-29T16:09:18;13.63;;;4.13;;
10491;SDS011;5293;51.464;-2.566;2022-12-29T16:11:44;13.50;;;3.03;;
10491;SDS011;5293;51.464;-2.566;2022-12-29T16:14:14;12.97;;;2.80;;
10491;SDS011;5293;51.464;-2.566;2022-12-29T16:16:43;12.47;;;2.53;;
10491;SDS011;5293;51.464;-2.566;2022-12-29T16:19:53;10.03;;;2.37;;
10491;SDS011;5293;51.464;-2.566;2022-12-29T16:22:01;6.53;;;2.20;;
10491;SDS011;5293;51.464;-2.566;2022-12-29T16:24:34;12.23;;;2.90;;
10491;SDS011;5293;51.464;-2.566;2022-12-29T16:29:45;6.17;;;1.90;;
10491;SDS011;5293;51.464;-2.566;2022-12-29T16:32:29;9.40;;;2.10;;
10491;SDS011;5293;51.464;-2.566;2022-12-29T16:37:48;7.23;;;1.53;;
10491;SDS011;5293;51.464;-2.566;2022-12-29T16:40:32;2.87;;;1.30;;
10491;SDS011;5293;51.464;-2.566;2022-12-29T16:43:01;3.73;;;1.50;;
10491;SDS011;5293;51.464;-2.566;2022-12-29T16:50:38;6.80;;;1.73;;
10491;SDS011;5293;51.464;-2.566;2022-12-29T16:53:06;6.20;;;1.67;;
10491;SDS011;5293;51.464;-2.566;2022-12-29T16:55:50;6.33;;;2.07;;
10491;SDS011;5293;51.464;-2.566;2022-12-29T16:58:20;6.03;;;2.33;;
10491;SDS011;5293;51.464;-2.566;2022-12-29T17:00:49;14.97;;;5.00;;
10491;SDS011;5293;51.464;-2.566;2022-12-29T17:03:20;6.27;;;2.03;;
10491;SDS011;5293;51.464;-2.566;2022-12-29T17:05:47;5.40;;;1.97;;
10491;SDS011;5293;51.464;-2.566;2022-12-29T17:08:20;5.63;;;1.53;;
10491;SDS011;5293;51.464;-2.566;2022-12-29T17:10:50;9.03;;;1.70;;
10491;SDS011;5293;51.464;-2.566;2022-12-29T17:13:39;7.57;;;1.83;;
10491;SDS011;5293;51.464;-2.566;2022-12-29T17:16:05;8.47;;;1.87;;
10491;SDS011;5293;51.464;-2.566;2022-12-29T17:18:33;4.67;;;1.53;;
10491;SDS011;5293;51.464;-2.566;2022-12-29T17:20:59;5.43;;;1.80;;
10491;SDS011;5293;51.464;-2.566;2022-12-29T17:23:25;3.70;;;1.43;;
10491;SDS011;5293;51.464;-2.566;2022-12-29T17:25:51;4.43;;;1.60;;
10491;SDS011;5293;51.464;-2.566;2022-12-29T17:28:19;4.27;;;2.00;;
10491;SDS011;5293;51.464;-2.566;2022-12-29T17:30:48;10.27;;;2.37;;